Aérodrome :
LOGIN :

S'inscrire | Disclaimer

   EN    FR    IT 

 










Légende :    VFR   VFR Marginal   IFR   IFR Intensif   IFR Très Intensif
Visi : 
Plafond : 
>= 8 km
>= 3000ft
5 à 8 km
1000 à 3000 ft
1500m à 5 km
500 à 1000 ft
800 à 1500m
200 à 500 ft
< 800m
< 200 ft
Symboles :   Orages  Brouillard  Fortes neiges  Fortes précipitations  Vent > 20 kt
SIGMETs :   Divers  Orages  Givrage  Turbulence  Onde Orograph.  Cendres Volcan.






- Altitude de l'aérodrome : 56 ft
- Code IATA : ILY


EGPI - Islay

DERNIER METAR :
  • 190250Z AUTO 29017KT 9999 FEW036/// 06/01 Q1011

METARs EXPIRÉS :
  • 190220Z AUTO 28018KT 9999 FEW034/// 06/01 Q1011
  • 190150Z AUTO 28016KT 250V310 9999 SCT033/// 06/02 Q1011
  • 190120Z AUTO 27021KT 9999 FEW039/// 06/02 Q1011
  • 190050Z AUTO 27021KT 9999 FEW039/// 06/01 Q1011 RERA
  • 190020Z AUTO 27021KT 240V300 9999 FEW028/// 05/02 Q1011 RERA

TAF TAF EGPI
Valide du 19 à 03h jusqu'au 19 à 12h UTC


190157Z 1903/1912 27017KT 9999 FEW030
PROB40
TEMPO 1903/1905 27020G30KT 6000 SHRA BKN014
BECMG 1906/1909 20014KT
TEMPO 1909/1912 6000 RA BKN010
BECMG 1910/1912 17018G28KT



MET'MAP, la Météo Aéronautique d'un coup d'oeil ! - Copyright ORBIFLY Décembre 2007 - Disclaimer

ORBIFLY MET'MAP TEAM :

Programmation & Développement : Alexandra Zaïnal
Sur une idée originale de : Baudouin d'Aumeries
Assistance à la programmation : Marc-Olivier Méhu
Soutien technique & logistique : Manuel Goepfert

Contact : metmap@orbifly.com




SOURCES & CREDITS :

   NOAA